North Henderson, IL (61466)

4:26 AM CST on December 20, 2014 (GMT -0600)
Old Schoolhouse Lane | Change Station
CLOSE
Current Station
Personal Weather Station
Location: Ophiem, IL
Elevation: 696 ft
Nearby Weather Stations

Elev 696 ft 41.25 °N, 90.38 °W | Updated 4 seconds ago

Overcast
Overcast
28.9 °F
Feels Like 29 °F
N
1.3
Wind Variable Wind from South
Gusts 2.0 mph

Today
High -- | Low -- °F
--% Chance of Precip.
Yesterday
High -- | Low -- °F
Precip. -- in
7:23 AM 4:35 PM
Waning Crescent, 3% visible
Pressure 30.24 in
Visibility 10.0 miles
Clouds Overcast 5000 ft
Windchill 29 °F
Dew Point 25 °F
Humidity 85%
Rainfall 0.00 in
Snow Depth Not available.
UV 0 out of 12
Pollen .10 out of 12
Air Quality Not available.
Flu Activity Not available.
METAR KGBG 201015Z AUTO 10003KT 10SM OVC050 M01/M04 A3024 RMK AO2 T10151039

More Conditions Fewer Conditions

Pressure 30.24 in
Visibility 10.0 miles
Clouds Overcast 5000 ft
Windchill 29 °F
Dew Point 25 °F
Humidity 85%
Rainfall 0.00 in
Snow Depth Not available.
UV 0 out of 12
Pollen .10 out of 12
Air Quality Not available.
Flu Activity Not available.
METAR KGBG 201015Z AUTO 10003KT 10SM OVC050 M01/M04 A3024 RMK AO2 T10151039

More Conditions Fewer Conditions

10-Day Weather Forecast

Almanac

Astronomy

Dec. 20, 2014 Rise Set
Actual Time
Civil Twilight
Nautical Twilight
Astronomical Twilight
Moon
Length of Visible Light
Length of Day
Tomorrow will be .
, % of the Moon is Illuminated

Today's Extremes

State Highs State Lows

Community

WunderPhotos

Upload Photos

1,779,150 photos uploaded!

WunderBlogs® & News

Nearby

Air Quality

  Air Quality AQ Index Pollutant
Not available.

Snow Depth

Station Depth Elevation

Earthquake Activity

City Distance Mag. Time & Date
Minimum magnitude displayed is 2.5.

Coastal Water Temperatures

Place Temperature

Nearby Weather Stations